sensor_id;sensor_type;location;lat;lon;timestamp;P1;durP1;ratioP1;P2;durP2;ratioP2
9667;SDS011;4872;48.316;10.650;2022-12-07T04:51:03;16.10;;;13.20;;
9667;SDS011;4872;48.316;10.650;2022-12-07T04:53:30;16.60;;;13.07;;
9667;SDS011;4872;48.316;10.650;2022-12-07T04:55:57;16.23;;;12.67;;
9667;SDS011;4872;48.316;10.650;2022-12-07T04:58:26;15.77;;;13.00;;
9667;SDS011;4872;48.316;10.650;2022-12-07T05:00:53;17.43;;;12.77;;
9667;SDS011;4872;48.316;10.650;2022-12-07T05:03:20;16.60;;;13.30;;
9667;SDS011;4872;48.316;10.650;2022-12-07T05:05:47;19.37;;;13.63;;
9667;SDS011;4872;48.316;10.650;2022-12-07T05:08:15;18.00;;;14.03;;
9667;SDS011;4872;48.316;10.650;2022-12-07T05:10:42;19.10;;;13.67;;
9667;SDS011;4872;48.316;10.650;2022-12-07T05:13:09;17.43;;;13.80;;
9667;SDS011;4872;48.316;10.650;2022-12-07T05:15:36;18.57;;;13.73;;
9667;SDS011;4872;48.316;10.650;2022-12-07T05:18:02;18.93;;;13.97;;
9667;SDS011;4872;48.316;10.650;2022-12-07T05:20:29;18.07;;;12.90;;
9667;SDS011;4872;48.316;10.650;2022-12-07T05:22:56;17.03;;;12.03;;
9667;SDS011;4872;48.316;10.650;2022-12-07T05:25:25;17.87;;;14.00;;
9667;SDS011;4872;48.316;10.650;2022-12-07T05:27:52;15.87;;;13.13;;
9667;SDS011;4872;48.316;10.650;2022-12-07T05:30:20;17.63;;;13.13;;
9667;SDS011;4872;48.316;10.650;2022-12-07T05:32:47;16.50;;;12.90;;
9667;SDS011;4872;48.316;10.650;2022-12-07T05:35:14;16.60;;;13.47;;
9667;SDS011;4872;48.316;10.650;2022-12-07T05:37:41;17.90;;;13.73;;
9667;SDS011;4872;48.316;10.650;2022-12-07T05:40:08;16.37;;;12.33;;
9667;SDS011;4872;48.316;10.650;2022-12-07T05:42:38;18.93;;;13.57;;
9667;SDS011;4872;48.316;10.650;2022-12-07T05:45:06;18.33;;;13.40;;
9667;SDS011;4872;48.316;10.650;2022-12-07T05:47:33;17.90;;;14.07;;
9667;SDS011;4872;48.316;10.650;2022-12-07T05:50:00;19.03;;;14.50;;
9667;SDS011;4872;48.316;10.650;2022-12-07T05:52:27;19.20;;;14.50;;
9667;SDS011;4872;48.316;10.650;2022-12-07T05:54:54;18.53;;;13.83;;
9667;SDS011;4872;48.316;10.650;2022-12-07T05:57:21;21.30;;;15.07;;
9667;SDS011;4872;48.316;10.650;2022-12-07T05:59:49;21.77;;;15.73;;
9667;SDS011;4872;48.316;10.650;2022-12-07T06:02:16;19.40;;;14.53;;
9667;SDS011;4872;48.316;10.650;2022-12-07T06:04:43;20.70;;;15.50;;
9667;SDS011;4872;48.316;10.650;2022-12-07T06:07:12;21.37;;;15.70;;
9667;SDS011;4872;48.316;10.650;2022-12-07T06:09:40;20.33;;;15.30;;
9667;SDS011;4872;48.316;10.650;2022-12-07T06:12:08;21.50;;;15.90;;
9667;SDS011;4872;48.316;10.650;2022-12-07T06:14:54;18.97;;;15.00;;
9667;SDS011;4872;48.316;10.650;2022-12-07T06:17:21;20.40;;;14.60;;
9667;SDS011;4872;48.316;10.650;2022-12-07T06:19:48;20.30;;;14.80;;
9667;SDS011;4872;48.316;10.650;2022-12-07T06:22:15;17.30;;;13.40;;
9667;SDS011;4872;48.316;10.650;2022-12-07T06:24:42;20.03;;;14.70;;
9667;SDS011;4872;48.316;10.650;2022-12-07T06:27:09;20.43;;;14.50;;
9667;SDS011;4872;48.316;10.650;2022-12-07T06:29:36;18.20;;;13.17;;
9667;SDS011;4872;48.316;10.650;2022-12-07T06:32:05;18.17;;;13.80;;
9667;SDS011;4872;48.316;10.650;2022-12-07T06:34:32;19.47;;;14.83;;
9667;SDS011;4872;48.316;10.650;2022-12-07T06:36:58;17.80;;;14.10;;
9667;SDS011;4872;48.316;10.650;2022-12-07T06:39:26;19.07;;;14.63;;
9667;SDS011;4872;48.316;10.650;2022-12-07T06:41:54;18.90;;;14.27;;
9667;SDS011;4872;48.316;10.650;2022-12-07T06:44:22;17.20;;;13.97;;
9667;SDS011;4872;48.316;10.650;2022-12-07T06:46:49;18.60;;;14.63;;
9667;SDS011;4872;48.316;10.650;2022-12-07T06:49:18;20.37;;;15.47;;
9667;SDS011;4872;48.316;10.650;2022-12-07T06:51:45;20.57;;;13.77;;
9667;SDS011;4872;48.316;10.650;2022-12-07T06:54:12;20.10;;;14.27;;
9667;SDS011;4872;48.316;10.650;2022-12-07T06:56:40;20.23;;;14.97;;
9667;SDS011;4872;48.316;10.650;2022-12-07T06:59:07;18.67;;;14.60;;
9667;SDS011;4872;48.316;10.650;2022-12-07T07:01:34;20.63;;;15.20;;
9667;SDS011;4872;48.316;10.650;2022-12-07T07:04:01;20.30;;;14.17;;
9667;SDS011;4872;48.316;10.650;2022-12-07T07:06:30;18.50;;;14.43;;
9667;SDS011;4872;48.316;10.650;2022-12-07T07:08:57;19.93;;;14.27;;
9667;SDS011;4872;48.316;10.650;2022-12-07T07:11:24;17.83;;;13.13;;
9667;SDS011;4872;48.316;10.650;2022-12-07T07:13:50;18.67;;;13.60;;
9667;SDS011;4872;48.316;10.650;2022-12-07T07:16:18;19.53;;;14.07;;
9667;SDS011;4872;48.316;10.650;2022-12-07T07:18:45;20.27;;;14.30;;
9667;SDS011;4872;48.316;10.650;2022-12-07T07:21:12;19.77;;;14.40;;
9667;SDS011;4872;48.316;10.650;2022-12-07T07:23:40;17.17;;;13.37;;
9667;SDS011;4872;48.316;10.650;2022-12-07T07:26:07;18.33;;;13.37;;
9667;SDS011;4872;48.316;10.650;2022-12-07T07:28:34;18.33;;;13.63;;
9667;SDS011;4872;48.316;10.650;2022-12-07T07:31:01;18.50;;;14.27;;
9667;SDS011;4872;48.316;10.650;2022-12-07T07:33:27;18.80;;;14.97;;
9667;SDS011;4872;48.316;10.650;2022-12-07T07:35:54;18.67;;;13.93;;
9667;SDS011;4872;48.316;10.650;2022-12-07T07:38:21;18.33;;;14.17;;
9667;SDS011;4872;48.316;10.650;2022-12-07T07:40:49;19.17;;;13.93;;
9667;SDS011;4872;48.316;10.650;2022-12-07T07:43:16;17.37;;;12.60;;
9667;SDS011;4872;48.316;10.650;2022-12-07T07:45:43;18.47;;;13.10;;
9667;SDS011;4872;48.316;10.650;2022-12-07T07:48:10;18.17;;;14.60;;
9667;SDS011;4872;48.316;10.650;2022-12-07T07:50:37;19.43;;;14.37;;
9667;SDS011;4872;48.316;10.650;2022-12-07T07:53:04;16.60;;;14.00;;
9667;SDS011;4872;48.316;10.650;2022-12-07T07:55:31;19.00;;;14.67;;
9667;SDS011;4872;48.316;10.650;2022-12-07T07:57:59;15.83;;;12.90;;
9667;SDS011;4872;48.316;10.650;2022-12-07T08:00:26;18.20;;;13.70;;
9667;SDS011;4872;48.316;10.650;2022-12-07T08:02:53;16.23;;;12.77;;
9667;SDS011;4872;48.316;10.650;2022-12-07T08:05:20;16.17;;;12.73;;
9667;SDS011;4872;48.316;10.650;2022-12-07T08:07:47;18.07;;;12.33;;
9667;SDS011;4872;48.316;10.650;2022-12-07T08:10:13;15.93;;;13.00;;
9667;SDS011;4872;48.316;10.650;2022-12-07T08:12:41;17.07;;;12.43;;
9667;SDS011;4872;48.316;10.650;2022-12-07T08:15:24;15.37;;;12.13;;
9667;SDS011;4872;48.316;10.650;2022-12-07T08:17:51;16.07;;;12.50;;
9667;SDS011;4872;48.316;10.650;2022-12-07T08:20:18;15.37;;;12.10;;
9667;SDS011;4872;48.316;10.650;2022-12-07T08:22:45;15.57;;;12.10;;
9667;SDS011;4872;48.316;10.650;2022-12-07T08:25:12;16.87;;;12.77;;
9667;SDS011;4872;48.316;10.650;2022-12-07T08:27:39;17.77;;;12.93;;
9667;SDS011;4872;48.316;10.650;2022-12-07T08:30:06;15.87;;;12.87;;
9667;SDS011;4872;48.316;10.650;2022-12-07T08:32:35;15.43;;;12.87;;
9667;SDS011;4872;48.316;10.650;2022-12-07T08:35:01;13.57;;;11.93;;
9667;SDS011;4872;48.316;10.650;2022-12-07T08:37:28;16.30;;;12.63;;
9667;SDS011;4872;48.316;10.650;2022-12-07T08:39:55;16.60;;;12.00;;
9667;SDS011;4872;48.316;10.650;2022-12-07T08:42:22;16.60;;;12.40;;
9667;SDS011;4872;48.316;10.650;2022-12-07T08:44:54;16.63;;;13.47;;
9667;SDS011;4872;48.316;10.650;2022-12-07T08:47:21;17.73;;;12.70;;
9667;SDS011;4872;48.316;10.650;2022-12-07T08:49:50;13.50;;;11.47;;
9667;SDS011;4872;48.316;10.650;2022-12-07T08:52:19;16.10;;;12.37;;
9667;SDS011;4872;48.316;10.650;2022-12-07T08:54:46;16.57;;;12.60;;
9667;SDS011;4872;48.316;10.650;2022-12-07T08:57:13;16.40;;;12.90;;
9667;SDS011;4872;48.316;10.650;2022-12-07T08:59:40;14.47;;;11.93;;
9667;SDS011;4872;48.316;10.650;2022-12-07T09:02:07;14.00;;;10.83;;
9667;SDS011;4872;48.316;10.650;2022-12-07T09:04:34;15.77;;;11.33;;
9667;SDS011;4872;48.316;10.650;2022-12-07T09:07:02;15.00;;;11.33;;
9667;SDS011;4872;48.316;10.650;2022-12-07T09:09:29;12.63;;;10.47;;
9667;SDS011;4872;48.316;10.650;2022-12-07T09:11:56;13.53;;;10.47;;
9667;SDS011;4872;48.316;10.650;2022-12-07T09:14:23;16.73;;;11.13;;
9667;SDS011;4872;48.316;10.650;2022-12-07T09:16:50;13.57;;;10.43;;
9667;SDS011;4872;48.316;10.650;2022-12-07T09:19:17;16.47;;;12.03;;
9667;SDS011;4872;48.316;10.650;2022-12-07T09:21:44;13.47;;;10.50;;
9667;SDS011;4872;48.316;10.650;2022-12-07T09:24:12;15.83;;;11.80;;
9667;SDS011;4872;48.316;10.650;2022-12-07T09:26:39;14.97;;;11.33;;
9667;SDS011;4872;48.316;10.650;2022-12-07T09:29:06;16.57;;;10.43;;
9667;SDS011;4872;48.316;10.650;2022-12-07T09:31:35;14.60;;;11.37;;
9667;SDS011;4872;48.316;10.650;2022-12-07T09:34:02;13.93;;;10.57;;
9667;SDS011;4872;48.316;10.650;2022-12-07T09:36:29;13.57;;;10.90;;
9667;SDS011;4872;48.316;10.650;2022-12-07T09:38:56;13.97;;;10.57;;
9667;SDS011;4872;48.316;10.650;2022-12-07T09:41:25;13.00;;;10.90;;
9667;SDS011;4872;48.316;10.650;2022-12-07T09:44:02;14.03;;;10.90;;
9667;SDS011;4872;48.316;10.650;2022-12-07T09:46:31;13.27;;;10.30;;
9667;SDS011;4872;48.316;10.650;2022-12-07T09:49:02;13.50;;;11.33;;
9667;SDS011;4872;48.316;10.650;2022-12-07T09:51:29;13.10;;;9.97;;
9667;SDS011;4872;48.316;10.650;2022-12-07T09:53:56;12.43;;;9.83;;
9667;SDS011;4872;48.316;10.650;2022-12-07T09:56:28;12.00;;;9.33;;
9667;SDS011;4872;48.316;10.650;2022-12-07T09:58:58;10.90;;;9.43;;
9667;SDS011;4872;48.316;10.650;2022-12-07T10:01:27;13.13;;;9.07;;
9667;SDS011;4872;48.316;10.650;2022-12-07T10:03:58;10.87;;;8.97;;
9667;SDS011;4872;48.316;10.650;2022-12-07T10:06:28;12.30;;;9.60;;
9667;SDS011;4872;48.316;10.650;2022-12-07T10:08:55;9.70;;;8.53;;
9667;SDS011;4872;48.316;10.650;2022-12-07T10:11:22;9.93;;;8.43;;
9667;SDS011;4872;48.316;10.650;2022-12-07T10:13:51;11.67;;;9.17;;
9667;SDS011;4872;48.316;10.650;2022-12-07T10:16:28;11.03;;;8.07;;
9667;SDS011;4872;48.316;10.650;2022-12-07T10:19:16;9.37;;;7.70;;
9667;SDS011;4872;48.316;10.650;2022-12-07T10:21:59;8.30;;;6.73;;
9667;SDS011;4872;48.316;10.650;2022-12-07T10:24:35;9.70;;;7.87;;
9667;SDS011;4872;48.316;10.650;2022-12-07T10:27:04;10.53;;;7.60;;
9667;SDS011;4872;48.316;10.650;2022-12-07T10:29:33;10.10;;;7.87;;
9667;SDS011;4872;48.316;10.650;2022-12-07T10:32:03;10.00;;;8.47;;
9667;SDS011;4872;48.316;10.650;2022-12-07T10:34:47;9.07;;;7.30;;
9667;SDS011;4872;48.316;10.650;2022-12-07T10:37:15;10.77;;;8.23;;
9667;SDS011;4872;48.316;10.650;2022-12-07T10:39:45;9.70;;;7.10;;
9667;SDS011;4872;48.316;10.650;2022-12-07T10:42:18;11.03;;;7.67;;
9667;SDS011;4872;48.316;10.650;2022-12-07T10:44:47;11.57;;;8.63;;
9667;SDS011;4872;48.316;10.650;2022-12-07T10:47:20;11.37;;;8.00;;
9667;SDS011;4872;48.316;10.650;2022-12-07T10:53:05;12.07;;;9.37;;
9667;SDS011;4872;48.316;10.650;2022-12-07T10:55:58;12.57;;;8.70;;
9667;SDS011;4872;48.316;10.650;2022-12-07T10:58:44;11.40;;;8.73;;
9667;SDS011;4872;48.316;10.650;2022-12-07T11:01:24;10.60;;;7.90;;
9667;SDS011;4872;48.316;10.650;2022-12-07T11:04:03;12.03;;;8.47;;
9667;SDS011;4872;48.316;10.650;2022-12-07T11:06:41;11.17;;;8.17;;
9667;SDS011;4872;48.316;10.650;2022-12-07T11:09:32;10.80;;;7.90;;
9667;SDS011;4872;48.316;10.650;2022-12-07T11:12:26;10.43;;;8.60;;
9667;SDS011;4872;48.316;10.650;2022-12-07T11:15:03;9.80;;;7.17;;
9667;SDS011;4872;48.316;10.650;2022-12-07T11:17:40;9.10;;;7.10;;
9667;SDS011;4872;48.316;10.650;2022-12-07T11:20:16;8.10;;;6.50;;
9667;SDS011;4872;48.316;10.650;2022-12-07T11:22:59;8.87;;;6.70;;
9667;SDS011;4872;48.316;10.650;2022-12-07T11:25:32;8.13;;;6.70;;
9667;SDS011;4872;48.316;10.650;2022-12-07T11:28:11;11.13;;;6.53;;
9667;SDS011;4872;48.316;10.650;2022-12-07T11:30:48;10.87;;;6.80;;
9667;SDS011;4872;48.316;10.650;2022-12-07T11:33:26;8.90;;;6.67;;
9667;SDS011;4872;48.316;10.650;2022-12-07T11:36:02;11.37;;;7.10;;
9667;SDS011;4872;48.316;10.650;2022-12-07T11:38:37;10.73;;;8.07;;
9667;SDS011;4872;48.316;10.650;2022-12-07T11:41:10;12.40;;;8.30;;
9667;SDS011;4872;48.316;10.650;2022-12-07T11:43:41;11.50;;;7.90;;
9667;SDS011;4872;48.316;10.650;2022-12-07T11:46:18;10.70;;;7.83;;
9667;SDS011;4872;48.316;10.650;2022-12-07T11:48:51;13.57;;;8.50;;
9667;SDS011;4872;48.316;10.650;2022-12-07T11:51:24;10.87;;;7.90;;
9667;SDS011;4872;48.316;10.650;2022-12-07T11:53:55;10.50;;;7.87;;
9667;SDS011;4872;48.316;10.650;2022-12-07T11:56:25;11.90;;;7.57;;
9667;SDS011;4872;48.316;10.650;2022-12-07T11:58:54;12.33;;;8.40;;
9667;SDS011;4872;48.316;10.650;2022-12-07T12:01:28;16.30;;;9.20;;
9667;SDS011;4872;48.316;10.650;2022-12-07T12:04:07;10.93;;;8.10;;
9667;SDS011;4872;48.316;10.650;2022-12-07T12:06:45;8.57;;;7.13;;
9667;SDS011;4872;48.316;10.650;2022-12-07T12:09:12;12.33;;;8.80;;
9667;SDS011;4872;48.316;10.650;2022-12-07T12:11:48;12.33;;;8.13;;
9667;SDS011;4872;48.316;10.650;2022-12-07T12:14:32;10.80;;;8.00;;
9667;SDS011;4872;48.316;10.650;2022-12-07T12:17:12;13.97;;;9.50;;
9667;SDS011;4872;48.316;10.650;2022-12-07T12:20:04;18.17;;;10.53;;
9667;SDS011;4872;48.316;10.650;2022-12-07T12:22:43;12.23;;;8.93;;
9667;SDS011;4872;48.316;10.650;2022-12-07T12:25:15;12.57;;;8.53;;
9667;SDS011;4872;48.316;10.650;2022-12-07T12:27:47;10.80;;;8.50;;
9667;SDS011;4872;48.316;10.650;2022-12-07T12:30:31;11.97;;;8.17;;
9667;SDS011;4872;48.316;10.650;2022-12-07T12:33:04;12.63;;;9.30;;
9667;SDS011;4872;48.316;10.650;2022-12-07T12:35:39;12.83;;;8.17;;
9667;SDS011;4872;48.316;10.650;2022-12-07T12:38:27;13.50;;;9.77;;
9667;SDS011;4872;48.316;10.650;2022-12-07T12:40:56;9.90;;;8.20;;
9667;SDS011;4872;48.316;10.650;2022-12-07T12:43:39;10.87;;;8.43;;
9667;SDS011;4872;48.316;10.650;2022-12-07T12:55:15;11.03;;;8.37;;
9667;SDS011;4872;48.316;10.650;2022-12-07T12:58:25;12.77;;;8.90;;
9667;SDS011;4872;48.316;10.650;2022-12-07T13:07:13;9.37;;;7.30;;
9667;SDS011;4872;48.316;10.650;2022-12-07T13:10:24;10.70;;;7.40;;
9667;SDS011;4872;48.316;10.650;2022-12-07T13:13:00;8.60;;;7.10;;
9667;SDS011;4872;48.316;10.650;2022-12-07T13:15:33;8.80;;;7.13;;
9667;SDS011;4872;48.316;10.650;2022-12-07T13:18:02;10.07;;;7.53;;
9667;SDS011;4872;48.316;10.650;2022-12-07T13:20:54;7.67;;;6.13;;
9667;SDS011;4872;48.316;10.650;2022-12-07T13:23:23;9.00;;;6.37;;
9667;SDS011;4872;48.316;10.650;2022-12-07T13:25:57;10.30;;;7.17;;
9667;SDS011;4872;48.316;10.650;2022-12-07T13:28:32;9.10;;;5.97;;
9667;SDS011;4872;48.316;10.650;2022-12-07T13:31:09;8.07;;;5.93;;
9667;SDS011;4872;48.316;10.650;2022-12-07T13:33:45;10.17;;;6.63;;
9667;SDS011;4872;48.316;10.650;2022-12-07T13:36:17;8.27;;;6.23;;
9667;SDS011;4872;48.316;10.650;2022-12-07T13:38:48;11.80;;;6.67;;
9667;SDS011;4872;48.316;10.650;2022-12-07T13:41:24;6.30;;;5.67;;
9667;SDS011;4872;48.316;10.650;2022-12-07T13:43:53;7.83;;;5.17;;
9667;SDS011;4872;48.316;10.650;2022-12-07T13:46:40;7.30;;;5.27;;
9667;SDS011;4872;48.316;10.650;2022-12-07T13:49:18;8.00;;;5.60;;
9667;SDS011;4872;48.316;10.650;2022-12-07T13:51:47;5.80;;;4.87;;
9667;SDS011;4872;48.316;10.650;2022-12-07T13:54:15;6.83;;;4.80;;
9667;SDS011;4872;48.316;10.650;2022-12-07T13:56:46;8.10;;;5.20;;
9667;SDS011;4872;48.316;10.650;2022-12-07T13:59:16;7.17;;;5.20;;
9667;SDS011;4872;48.316;10.650;2022-12-07T14:01:45;5.67;;;4.63;;
9667;SDS011;4872;48.316;10.650;2022-12-07T14:04:28;7.40;;;4.70;;
9667;SDS011;4872;48.316;10.650;2022-12-07T14:06:57;8.10;;;5.37;;
9667;SDS011;4872;48.316;10.650;2022-12-07T14:09:26;5.37;;;4.47;;
9667;SDS011;4872;48.316;10.650;2022-12-07T14:11:56;6.73;;;4.73;;
9667;SDS011;4872;48.316;10.650;2022-12-07T14:14:24;4.87;;;4.30;;
9667;SDS011;4872;48.316;10.650;2022-12-07T14:16:58;7.60;;;4.73;;
9667;SDS011;4872;48.316;10.650;2022-12-07T14:22:23;4.63;;;3.70;;
9667;SDS011;4872;48.316;10.650;2022-12-07T14:24:58;7.13;;;4.97;;
9667;SDS011;4872;48.316;10.650;2022-12-07T14:27:31;6.80;;;4.70;;
9667;SDS011;4872;48.316;10.650;2022-12-07T14:30:01;5.73;;;4.43;;
9667;SDS011;4872;48.316;10.650;2022-12-07T14:32:29;6.30;;;4.67;;
9667;SDS011;4872;48.316;10.650;2022-12-07T14:34:57;5.57;;;4.27;;
9667;SDS011;4872;48.316;10.650;2022-12-07T14:37:26;6.63;;;4.57;;
9667;SDS011;4872;48.316;10.650;2022-12-07T14:39:53;5.10;;;4.60;;
9667;SDS011;4872;48.316;10.650;2022-12-07T14:42:20;5.97;;;4.33;;
9667;SDS011;4872;48.316;10.650;2022-12-07T14:44:53;5.63;;;4.50;;
9667;SDS011;4872;48.316;10.650;2022-12-07T14:47:20;5.77;;;4.70;;
9667;SDS011;4872;48.316;10.650;2022-12-07T14:49:47;5.17;;;4.10;;
9667;SDS011;4872;48.316;10.650;2022-12-07T14:52:15;7.23;;;4.43;;
9667;SDS011;4872;48.316;10.650;2022-12-07T14:54:44;5.80;;;4.47;;
9667;SDS011;4872;48.316;10.650;2022-12-07T14:57:11;7.47;;;5.13;;
9667;SDS011;4872;48.316;10.650;2022-12-07T14:59:38;6.73;;;4.50;;
9667;SDS011;4872;48.316;10.650;2022-12-07T15:02:06;20.87;;;13.87;;
9667;SDS011;4872;48.316;10.650;2022-12-07T15:04:36;48.83;;;29.53;;
9667;SDS011;4872;48.316;10.650;2022-12-07T15:07:04;11.87;;;7.93;;
9667;SDS011;4872;48.316;10.650;2022-12-07T15:09:32;9.33;;;6.87;;
9667;SDS011;4872;48.316;10.650;2022-12-07T15:11:59;11.37;;;8.13;;
9667;SDS011;4872;48.316;10.650;2022-12-07T15:14:26;8.37;;;5.60;;
9667;SDS011;4872;48.316;10.650;2022-12-07T15:16:52;9.47;;;6.80;;
9667;SDS011;4872;48.316;10.650;2022-12-07T15:19:22;10.90;;;6.73;;
9667;SDS011;4872;48.316;10.650;2022-12-07T15:21:50;9.17;;;6.80;;
9667;SDS011;4872;48.316;10.650;2022-12-07T15:24:18;7.17;;;5.60;;
9667;SDS011;4872;48.316;10.650;2022-12-07T15:26:46;10.60;;;6.80;;
9667;SDS011;4872;48.316;10.650;2022-12-07T15:29:14;9.63;;;7.33;;
9667;SDS011;4872;48.316;10.650;2022-12-07T15:31:41;11.53;;;8.30;;
9667;SDS011;4872;48.316;10.650;2022-12-07T15:34:09;13.93;;;9.60;;
9667;SDS011;4872;48.316;10.650;2022-12-07T15:36:37;13.53;;;10.07;;
9667;SDS011;4872;48.316;10.650;2022-12-07T15:39:04;10.30;;;8.40;;
9667;SDS011;4872;48.316;10.650;2022-12-07T15:41:31;11.93;;;7.40;;
9667;SDS011;4872;48.316;10.650;2022-12-07T15:43:58;6.80;;;6.10;;
9667;SDS011;4872;48.316;10.650;2022-12-07T15:46:42;27.23;;;19.73;;
9667;SDS011;4872;48.316;10.650;2022-12-07T15:49:10;11.17;;;9.13;;
9667;SDS011;4872;48.316;10.650;2022-12-07T15:51:40;10.87;;;9.73;;
9667;SDS011;4872;48.316;10.650;2022-12-07T15:54:09;11.23;;;10.13;;
9667;SDS011;4872;48.316;10.650;2022-12-07T15:56:39;13.10;;;10.37;;
9667;SDS011;4872;48.316;10.650;2022-12-07T15:59:05;10.57;;;8.67;;
9667;SDS011;4872;48.316;10.650;2022-12-07T16:01:32;10.07;;;8.77;;
9667;SDS011;4872;48.316;10.650;2022-12-07T16:03:59;15.53;;;12.57;;
9667;SDS011;4872;48.316;10.650;2022-12-07T16:06:26;29.70;;;26.63;;
9667;SDS011;4872;48.316;10.650;2022-12-07T16:08:54;30.97;;;27.73;;
9667;SDS011;4872;48.316;10.650;2022-12-07T16:11:21;26.17;;;22.77;;
9667;SDS011;4872;48.316;10.650;2022-12-07T16:13:48;25.57;;;20.80;;
9667;SDS011;4872;48.316;10.650;2022-12-07T16:16:16;20.33;;;18.03;;
9667;SDS011;4872;48.316;10.650;2022-12-07T16:18:45;21.53;;;18.40;;
9667;SDS011;4872;48.316;10.650;2022-12-07T16:21:13;20.43;;;18.27;;
9667;SDS011;4872;48.316;10.650;2022-12-07T16:23:40;19.07;;;15.97;;
9667;SDS011;4872;48.316;10.650;2022-12-07T16:26:09;15.17;;;13.67;;
9667;SDS011;4872;48.316;10.650;2022-12-07T16:28:37;16.07;;;12.70;;
9667;SDS011;4872;48.316;10.650;2022-12-07T16:31:05;18.83;;;16.80;;
9667;SDS011;4872;48.316;10.650;2022-12-07T16:33:35;13.87;;;11.93;;
9667;SDS011;4872;48.316;10.650;2022-12-07T16:36:02;11.67;;;9.43;;
9667;SDS011;4872;48.316;10.650;2022-12-07T16:38:30;8.90;;;7.77;;
9667;SDS011;4872;48.316;10.650;2022-12-07T16:40:57;15.00;;;11.87;;
9667;SDS011;4872;48.316;10.650;2022-12-07T16:43:25;14.63;;;11.73;;
9667;SDS011;4872;48.316;10.650;2022-12-07T16:45:52;15.73;;;11.70;;
9667;SDS011;4872;48.316;10.650;2022-12-07T16:48:19;12.27;;;10.77;;
9667;SDS011;4872;48.316;10.650;2022-12-07T16:50:46;11.30;;;10.07;;
9667;SDS011;4872;48.316;10.650;2022-12-07T16:53:13;12.27;;;8.80;;
9667;SDS011;4872;48.316;10.650;2022-12-07T16:55:41;12.83;;;9.07;;
9667;SDS011;4872;48.316;10.650;2022-12-07T16:58:09;11.27;;;8.87;;
9667;SDS011;4872;48.316;10.650;2022-12-07T17:00:39;11.13;;;9.40;;
9667;SDS011;4872;48.316;10.650;2022-12-07T17:03:06;12.27;;;9.73;;
9667;SDS011;4872;48.316;10.650;2022-12-07T17:05:36;11.43;;;8.73;;
9667;SDS011;4872;48.316;10.650;2022-12-07T17:08:04;12.03;;;8.83;;
9667;SDS011;4872;48.316;10.650;2022-12-07T17:10:31;13.00;;;8.73;;
9667;SDS011;4872;48.316;10.650;2022-12-07T17:13:00;14.13;;;8.37;;
9667;SDS011;4872;48.316;10.650;2022-12-07T17:15:27;9.17;;;7.97;;
9667;SDS011;4872;48.316;10.650;2022-12-07T17:17:56;11.17;;;8.43;;
9667;SDS011;4872;48.316;10.650;2022-12-07T17:20:25;9.67;;;8.00;;
9667;SDS011;4872;48.316;10.650;2022-12-07T17:22:53;9.47;;;7.20;;
9667;SDS011;4872;48.316;10.650;2022-12-07T17:25:20;12.80;;;9.07;;
9667;SDS011;4872;48.316;10.650;2022-12-07T17:27:47;12.33;;;10.13;;
9667;SDS011;4872;48.316;10.650;2022-12-07T17:30:14;12.43;;;9.13;;
9667;SDS011;4872;48.316;10.650;2022-12-07T17:32:41;12.70;;;8.93;;
9667;SDS011;4872;48.316;10.650;2022-12-07T17:35:09;13.23;;;10.07;;
9667;SDS011;4872;48.316;10.650;2022-12-07T17:37:36;15.27;;;9.90;;
9667;SDS011;4872;48.316;10.650;2022-12-07T17:40:04;12.83;;;9.13;;
9667;SDS011;4872;48.316;10.650;2022-12-07T17:42:31;12.17;;;8.97;;
9667;SDS011;4872;48.316;10.650;2022-12-07T17:45:05;12.50;;;9.80;;
9667;SDS011;4872;48.316;10.650;2022-12-07T17:47:34;13.90;;;10.87;;
9667;SDS011;4872;48.316;10.650;2022-12-07T17:50:02;15.10;;;10.37;;
9667;SDS011;4872;48.316;10.650;2022-12-07T17:52:31;13.13;;;9.80;;
9667;SDS011;4872;48.316;10.650;2022-12-07T17:55:21;11.73;;;9.37;;
9667;SDS011;4872;48.316;10.650;2022-12-07T17:57:48;13.10;;;10.50;;
9667;SDS011;4872;48.316;10.650;2022-12-07T18:00:16;15.97;;;10.37;;
9667;SDS011;4872;48.316;10.650;2022-12-07T18:02:43;11.60;;;9.83;;
9667;SDS011;4872;48.316;10.650;2022-12-07T18:05:10;12.27;;;9.70;;
9667;SDS011;4872;48.316;10.650;2022-12-07T18:07:38;12.93;;;10.03;;
9667;SDS011;4872;48.316;10.650;2022-12-07T18:10:06;12.93;;;9.90;;
9667;SDS011;4872;48.316;10.650;2022-12-07T18:12:35;12.70;;;9.73;;
9667;SDS011;4872;48.316;10.650;2022-12-07T18:15:04;14.13;;;9.87;;
9667;SDS011;4872;48.316;10.650;2022-12-07T18:17:32;14.00;;;10.53;;
9667;SDS011;4872;48.316;10.650;2022-12-07T18:19:58;14.70;;;10.60;;
9667;SDS011;4872;48.316;10.650;2022-12-07T18:22:25;13.13;;;10.53;;
9667;SDS011;4872;48.316;10.650;2022-12-07T18:24:53;14.90;;;11.37;;
9667;SDS011;4872;48.316;10.650;2022-12-07T18:27:20;16.13;;;11.50;;
9667;SDS011;4872;48.316;10.650;2022-12-07T18:29:47;18.13;;;11.60;;
9667;SDS011;4872;48.316;10.650;2022-12-07T18:32:14;14.50;;;11.03;;
9667;SDS011;4872;48.316;10.650;2022-12-07T18:34:41;14.17;;;10.67;;
9667;SDS011;4872;48.316;10.650;2022-12-07T18:37:08;18.13;;;12.27;;
9667;SDS011;4872;48.316;10.650;2022-12-07T18:39:34;16.83;;;11.83;;
9667;SDS011;4872;48.316;10.650;2022-12-07T18:42:02;20.87;;;12.33;;
9667;SDS011;4872;48.316;10.650;2022-12-07T18:44:29;26.90;;;15.07;;
9667;SDS011;4872;48.316;10.650;2022-12-07T18:46:56;19.80;;;13.77;;
9667;SDS011;4872;48.316;10.650;2022-12-07T18:49:23;23.70;;;16.50;;
9667;SDS011;4872;48.316;10.650;2022-12-07T18:51:50;23.23;;;17.40;;
9667;SDS011;4872;48.316;10.650;2022-12-07T18:54:17;24.10;;;16.60;;
9667;SDS011;4872;48.316;10.650;2022-12-07T18:56:43;24.30;;;16.43;;
9667;SDS011;4872;48.316;10.650;2022-12-07T18:59:12;17.83;;;14.90;;
9667;SDS011;4872;48.316;10.650;2022-12-07T19:01:57;17.93;;;14.17;;
9667;SDS011;4872;48.316;10.650;2022-12-07T19:04:24;20.43;;;15.03;;
9667;SDS011;4872;48.316;10.650;2022-12-07T19:06:51;17.03;;;13.83;;
9667;SDS011;4872;48.316;10.650;2022-12-07T19:09:18;17.33;;;13.33;;
9667;SDS011;4872;48.316;10.650;2022-12-07T19:11:45;18.33;;;14.30;;
9667;SDS011;4872;48.316;10.650;2022-12-07T19:14:17;19.87;;;16.43;;
9667;SDS011;4872;48.316;10.650;2022-12-07T19:16:46;20.77;;;16.53;;
9667;SDS011;4872;48.316;10.650;2022-12-07T19:19:14;18.03;;;15.80;;
9667;SDS011;4872;48.316;10.650;2022-12-07T19:21:42;19.67;;;15.83;;
9667;SDS011;4872;48.316;10.650;2022-12-07T19:24:09;16.57;;;14.43;;
9667;SDS011;4872;48.316;10.650;2022-12-07T19:26:36;18.20;;;14.70;;
9667;SDS011;4872;48.316;10.650;2022-12-07T19:29:03;19.37;;;13.83;;
9667;SDS011;4872;48.316;10.650;2022-12-07T19:31:32;21.50;;;15.17;;
9667;SDS011;4872;48.316;10.650;2022-12-07T19:34:00;19.83;;;15.20;;
9667;SDS011;4872;48.316;10.650;2022-12-07T19:36:27;27.30;;;19.33;;
9667;SDS011;4872;48.316;10.650;2022-12-07T19:38:54;24.90;;;18.13;;
9667;SDS011;4872;48.316;10.650;2022-12-07T19:41:21;21.00;;;15.20;;
9667;SDS011;4872;48.316;10.650;2022-12-07T19:44:00;16.97;;;13.97;;
9667;SDS011;4872;48.316;10.650;2022-12-07T19:46:28;19.37;;;13.23;;
9667;SDS011;4872;48.316;10.650;2022-12-07T19:48:57;17.63;;;12.83;;
9667;SDS011;4872;48.316;10.650;2022-12-07T19:51:24;17.23;;;13.17;;
9667;SDS011;4872;48.316;10.650;2022-12-07T19:53:52;17.13;;;12.73;;
9667;SDS011;4872;48.316;10.650;2022-12-07T19:56:21;18.00;;;14.00;;
9667;SDS011;4872;48.316;10.650;2022-12-07T19:58:48;18.27;;;14.53;;
9667;SDS011;4872;48.316;10.650;2022-12-07T20:01:14;17.93;;;13.37;;
9667;SDS011;4872;48.316;10.650;2022-12-07T20:03:41;17.17;;;13.63;;
9667;SDS011;4872;48.316;10.650;2022-12-07T20:06:10;16.67;;;11.37;;
9667;SDS011;4872;48.316;10.650;2022-12-07T20:08:39;18.27;;;12.60;;
9667;SDS011;4872;48.316;10.650;2022-12-07T20:11:07;21.20;;;16.23;;